Terminal Aerodrome Forecast
Issued by NWS La Crosse, WI

Home | Current Version | Previous Version | Text Only | Print | Product List | Glossary On
Versions: 1 2 3 4 5 6 7 8 9 10 11 12 13 14 15 16 17 18 19 20 21 22 23 24 25 26 27 28 29 30 31 32 33 34 35
000
FTUS43 KARX 290520
TAFRST
TAF
KRST 290520Z 2906/3006 19010KT P6SM BKN100
     FM290700 18010KT P6SM -SHRA BKN035
     FM291100 19009KT P6SM BKN025
     FM291800 24012G19KT P6SM -TSRA OVC035CB
     FM292000 29014KT P6SM -SHRA OVC025
     FM300100 34013KT P6SM OVC015=

USA.gov is the U.S. government's official web portal to all federal, state and local government web resources and services.